Map

Track Data

SID SEASON NUMBER BASIN SUBBASIN NAME ISO_TIME NATURE LAT LON WMO_WIND WMO_PRES WMO_AGENCY TRACK_TYPE DIST2LAND LANDFALL IFLAG USA_AGENCY USA_ATCF_ID USA_LAT USA_LON USA_RECORD USA_STATUS USA_WIND USA_PRES USA_SSHS USA_R34_NE USA_R34_SE USA_R34_SW USA_R34_NW USA_R50_NE USA_R50_SE USA_R50_SW USA_R50_NW USA_R64_NE USA_R64_SE USA_R64_SW USA_R64_NW USA_POCI USA_ROCI USA_RMW USA_EYE TOKYO_LAT TOKYO_LON TOKYO_GRADE TOKYO_WIND TOKYO_PRES TOKYO_R50_DIR TOKYO_R50_LONG TOKYO_R50_SHORT TOKYO_R30_DIR TOKYO_R30_LONG TOKYO_R30_SHORT TOKYO_LAND CMA_LAT CMA_LON CMA_CAT CMA_WIND CMA_PRES HKO_LAT HKO_LON HKO_CAT HKO_WIND HKO_PRES NEWDELHI_LAT NEWDELHI_LON NEWDELHI_GRADE NEWDELHI_WIND NEWDELHI_PRES NEWDELHI_CI NEWDELHI_DP NEWDELHI_POCI REUNION_LAT REUNION_LON REUNION_TYPE REUNION_WIND REUNION_PRES REUNION_TNUM REUNION_CI REUNION_RMW REUNION_R34_NE REUNION_R34_SE REUNION_R34_SW REUNION_R34_NW REUNION_R50_NE REUNION_R50_SE REUNION_R50_SW REUNION_R50_NW REUNION_R64_NE REUNION_R64_SE REUNION_R64_SW REUNION_R64_NW BOM_LAT BOM_LON BOM_TYPE BOM_WIND BOM_PRES BOM_TNUM BOM_CI BOM_RMW BOM_R34_NE BOM_R34_SE BOM_R34_SW BOM_R34_NW BOM_R50_NE BOM_R50_SE BOM_R50_SW BOM_R50_NW BOM_R64_NE BOM_R64_SE BOM_R64_SW BOM_R64_NW BOM_ROCI BOM_POCI BOM_EYE BOM_POS_METHOD BOM_PRES_METHOD NADI_LAT NADI_LON NADI_CAT NADI_WIND NADI_PRES WELLINGTON_LAT WELLINGTON_LON WELLINGTON_WIND WELLINGTON_PRES DS824_LAT DS824_LON DS824_STAGE DS824_WIND DS824_PRES TD9636_LAT TD9636_LON TD9636_STAGE TD9636_WIND TD9636_PRES TD9635_LAT TD9635_LON TD9635_WIND TD9635_PRES TD9635_ROCI NEUMANN_LAT NEUMANN_LON NEUMANN_CLASS NEUMANN_WIND NEUMANN_PRES MLC_LAT MLC_LON MLC_CLASS MLC_WIND MLC_PRES USA_GUST BOM_GUST BOM_GUST_PER REUNION_GUST REUNION_GUST_PER USA_SEAHGT USA_SEARAD_NE USA_SEARAD_SE USA_SEARAD_SW USA_SEARAD_NW STORM_SPEED STORM_DIR
2019093S08132 2019 19 SI WA WALLACE 2019-04-03 06:00:00 NR -8.20000 132.300 main 102 95 O_____________ jtwc_sh SH232019 -8.20000 132.300 DB 20 1008 -3 1006 135 45 9 214
2019093S08132 2019 19 SI WA WALLACE 2019-04-03 09:00:00 NR -8.56755 132.045 main 102 102 P_____________ SH232019 -8.56755 132.045 DB 20 1007 -3 1007 135 45 9 215
2019093S08132 2019 19 SI WA WALLACE 2019-04-03 12:00:00 NR -8.90000 131.800 main 114 114 O_____________ jtwc_sh SH232019 -8.90000 131.800 DB 20 1007 -3 1008 135 45 8 218
2019093S08132 2019 19 SI WA WALLACE 2019-04-03 15:00:00 NR -9.17244 131.565 main 138 136 P_____________ SH232019 -9.17244 131.565 DB 22 1006 -3 1008 132 42 7 225
2019093S08132 2019 19 SI WA WALLACE 2019-04-03 18:00:00 TS -9.40000 131.300 main 156 156 O_____________ jtwc_sh SH232019 -9.40000 131.300 TD 25 1006 -1 1008 130 40 7 235
2019093S08132 2019 19 SI WA WALLACE 2019-04-03 21:00:00 TS -9.59251 130.965 main 179 168 P_____________ SH232019 -9.59251 130.965 TD 25 1006 -1 1008 142 40 8 240
2019093S08132 2019 19 SI WA WALLACE 2019-04-04 00:00:00 TS -9.80000 130.600 main 168 136 O_____________ jtwc_sh SH232019 -9.80000 130.600 TD 25 1006 -1 1008 155 40 9 235
2019093S08132 2019 19 SI WA WALLACE 2019-04-04 03:00:00 TS -10.1000 130.235 main 138 114 P_____________ SH232019 -10.1000 130.235 TD 27 1005 -1 1007 167 37 9 229
2019093S08132 2019 19 SI WA WALLACE 2019-04-04 06:00:00 TS -10.4000 129.900 main 116 104 O_____________ jtwc_sh SH232019 -10.4000 129.900 TD 30 1004 -1 1007 180 35 8 229
2019093S08132 2019 19 SI WA WALLACE 2019-04-04 09:00:00 TS -10.6149 129.635 main 111 101 P_____________ SH232019 -10.6149 129.635 TD 30 1004 -1 1008 175 37 6 231
2019093S08132 2019 19 SI WA WALLACE 2019-04-04 12:00:00 TS -10.8000 129.400 main 109 109 O_____________ jtwc_sh SH232019 -10.8000 129.400 TD 30 1004 -1 1009 170 40 6 230
2019093S08132 2019 19 SI WA WALLACE 2019-04-04 15:00:00 TS -11.0074 129.165 main 113 113 P_____________ SH232019 -11.0074 129.165 TD 30 1004 -1 1009 170 40 6 231
2019093S08132 2019 19 SI WA WALLACE 2019-04-04 18:00:00 TS -11.2000 128.900 main 135 135 O_____________ jtwc_sh SH232019 -11.2000 128.900 TD 30 1004 -1 1009 170 40 7 238
2019093S08132 2019 19 SI WA WALLACE 2019-04-04 21:00:00 TS -11.3724 128.580 main 163 163 P_____________ SH232019 -11.3724 128.580 TD 32 1003 -1 1008 167 40 8 246
2019093S08132 2019 19 SI WA WALLACE 2019-04-05 00:00:00 TS -11.5000 128.200 main 207 207 O_____________ jtwc_sh SH232019 -11.5000 128.200 TS 35 1002 0 35 75 150 65 1008 165 40 8 257
2019093S08132 2019 19 SI WA WALLACE 2019-04-05 03:00:00 TS -11.5650 127.757 main 251 247 P_____________ SH232019 -11.5650 127.757 TS 35 1002 0 60 75 137 67 1007 165 40 9 264
2019093S08132 2019 19 SI WA WALLACE 2019-04-05 06:00:00 TS -11.6000 127.300 main 247 246 O_____________ jtwc_sh SH232019 -11.6000 127.300 TS 35 1002 0 85 75 125 70 1007 165 40 9 264
2019093S08132 2019 19 SI WA WALLACE 2019-04-05 09:00:00 TS -11.6499 126.885 main 246 235 P_____________ SH232019 -11.6499 126.885 TS 37 1001 0 72 72 100 65 1007 160 40 8 263
2019093S08132 2019 19 SI WA WALLACE 2019-04-05 12:00:00 TS -11.7000 126.500 main 239 239 O_____________ jtwc_sh SH232019 -11.7000 126.500 TS 40 1000 0 60 70 75 60 1008 155 40 7 263
2019093S08132 2019 19 SI WA WALLACE 2019-04-05 15:00:00 TS -11.7424 126.157 main 247 237 P_____________ SH232019 -11.7424 126.157 TS 40 1000 0 40 45 62 45 1008 167 40 7 262
2019093S08132 2019 19 SI WA WALLACE 2019-04-05 18:00:00 TS -11.8000 125.800 main 237 219 O_____________ jtwc_sh SH232019 -11.8000 125.800 TS 40 1000 0 20 20 50 30 1009 180 40 8 260
2019093S08132 2019 19 SI WA WALLACE 2019-04-05 21:00:00 TS -11.8775 125.357 main 224 211 P_____________ SH232019 -11.8775 125.357 TS 42 999 0 37 60 80 60 1009 190 40 9 257
2019093S08132 2019 19 SI WA WALLACE 2019-04-06 00:00:00 TS -12.0000 124.900 main 214 209 O_____________ jtwc_sh SH232019 -12.0000 124.900 TS 45 998 0 55 100 110 90 1010 200 40 9 250
2019093S08132 2019 19 SI WA WALLACE 2019-04-06 03:00:00 TS -12.1848 124.507 main 215 211 P_____________ SH232019 -12.1848 124.507 TS 45 997 0 55 100 110 90 1008 185 37 9 243
2019093S08132 2019 19 SI WA WALLACE 2019-04-06 06:00:00 TS -12.4000 124.100 main 226 225 O_____________ jtwc_sh SH232019 -12.4000 124.100 TS 45 997 0 55 100 110 90 1007 170 35 10 243
2019093S08132 2019 19 SI WA WALLACE 2019-04-06 09:00:00 TS -12.6224 123.623 main 246 246 P_____________ SH232019 -12.6224 123.623 TS 45 996 0 57 100 110 90 1008 175 35 11 248
2019093S08132 2019 19 SI WA WALLACE 2019-04-06 12:00:00 TS -12.8000 123.100 main 272 272 O_____________ jtwc_sh SH232019 -12.8000 123.100 TS 45 996 0 60 100 110 90 1009 180 35 11 256
2019093S08132 2019 19 SI WA WALLACE 2019-04-06 15:00:00 TS -12.8874 122.565 main 296 296 P_____________ SH232019 -12.8874 122.565 TS 45 996 0 60 90 92 75 1009 202 35 11 265
2019093S08132 2019 19 SI WA WALLACE 2019-04-06 18:00:00 TS -12.9000 122.000 main 324 296 O_____________ jtwc_sh SH232019 -12.9000 122.000 TS 45 996 0 60 80 75 60 1009 225 35 11 273
2019093S08132 2019 19 SI WA WALLACE 2019-04-06 21:00:00 TS -12.8350 121.400 main 296 281 P_____________ SH232019 -12.8350 121.400 TS 45 996 0 57 85 77 55 1009 225 35 12 275
2019093S08132 2019 19 SI WA WALLACE 2019-04-07 00:00:00 TS -12.8000 120.800 main 281 279 O_____________ jtwc_sh SH232019 -12.8000 120.800 TS 45 996 0 55 90 80 50 1009 225 35 11 266
2019093S08132 2019 19 SI WA WALLACE 2019-04-07 03:00:00 TS -12.9124 120.235 main 293 293 P_____________ SH232019 -12.9124 120.235 TS 45 996 0 57 90 85 55 1008 212 35 11 254
2019093S08132 2019 19 SI WA WALLACE 2019-04-07 06:00:00 TS -13.1000 119.700 main 325 325 O_____________ jtwc_sh SH232019 -13.1000 119.700 TS 45 996 0 60 90 90 60 1008 200 35 11 250
2019093S08132 2019 19 SI WA WALLACE 2019-04-07 09:00:00 TS -13.2774 119.192 main 363 363 P_____________ SH232019 -13.2774 119.192 TS 45 996 0 60 90 90 60 1008 200 35 11 248
2019093S08132 2019 19 SI WA WALLACE 2019-04-07 12:00:00 TS -13.5000 118.700 main 404 404 O_____________ jtwc_sh SH232019 -13.5000 118.700 TS 45 996 0 60 90 90 60 1008 200 35 11 243
2019093S08132 2019 19 SI WA WALLACE 2019-04-07 15:00:00 TS -13.7700 118.177 main 458 458 P_____________ SH232019 -13.7700 118.177 TS 47 995 0 57 85 90 62 1008 202 35 11 238
2019093S08132 2019 19 SI WA WALLACE 2019-04-07 18:00:00 TS -14.1000 117.700 main 514 514 O_____________ jtwc_sh SH232019 -14.1000 117.700 TS 50 994 0 55 80 90 65 20 35 30 20 1008 205 35 11 229
2019093S08132 2019 19 SI WA WALLACE 2019-04-07 21:00:00 TS -14.4999 117.312 main 572 572 P_____________ SH232019 -14.4999 117.312 TS 50 994 0 55 100 77 55 20 47 27 17 1008 205 35 11 220
2019093S08132 2019 19 SI WA WALLACE 2019-04-08 00:00:00 TS -14.9000 117.000 main 617 597 O_____________ jtwc_sh SH232019 -14.9000 117.000 TS 50 994 0 55 120 65 45 20 60 25 15 1008 205 35 9 217
2019093S08132 2019 19 SI WA WALLACE 2019-04-08 03:00:00 TS -15.2149 116.750 main 600 571 P_____________ SH232019 -15.2149 116.750 TS 52 993 0 60 102 60 47 22 50 22 15 1008 205 35 8 219
2019093S08132 2019 19 SI WA WALLACE 2019-04-08 06:00:00 TS -15.5000 116.500 main 571 539 O_____________ jtwc_sh SH232019 -15.5000 116.500 TS 55 992 0 65 85 55 50 25 40 20 15 1008 205 35 8 223
2019093S08132 2019 19 SI WA WALLACE 2019-04-08 09:00:00 TS -15.8300 116.158 main 539 510 P_____________ SH232019 -15.8300 116.158 TS 55 992 0 62 87 67 52 25 40 27 20 1008 205 27 9 228
2019093S08132 2019 19 SI WA WALLACE 2019-04-08 12:00:00 TS -16.1000 115.800 main 512 503 O_____________ jtwc_sh SH232019 -16.1000 115.800 TS 55 992 0 60 90 80 55 25 40 35 25 1008 205 20 8 237
2019093S08132 2019 19 SI WA WALLACE 2019-04-08 15:00:00 TS -16.2524 115.485 main 497 497 P_____________ SH232019 -16.2524 115.485 TS 57 995 0 57 90 77 52 25 40 32 20 1008 202 20 6 251
2019093S08132 2019 19 SI WA WALLACE 2019-04-08 18:00:00 TS -16.3000 115.200 main 506 506 O_____________ jtwc_sh SH232019 -16.3000 115.200 TS 60 998 0 55 90 75 50 25 40 30 15 1008 200 20 5 269
2019093S08132 2019 19 SI WA WALLACE 2019-04-08 21:00:00 TS -16.2575 114.927 main 517 517 P_____________ SH232019 -16.2575 114.927 TS 55 996 0 62 92 82 47 27 42 35 15 1008 192 20 5 282
2019093S08132 2019 19 SI WA WALLACE 2019-04-09 00:00:00 TS -16.2000 114.700 main 535 535 O_____________ jtwc_sh SH232019 -16.2000 114.700 TS 50 995 0 70 95 90 45 30 45 40 15 1008 185 20 4 277
2019093S08132 2019 19 SI WA WALLACE 2019-04-09 03:00:00 TS -16.2124 114.557 main 539 534 P_____________ SH232019 -16.2124 114.557 TS 50 995 0 70 95 90 47 1008 182 25 3 251
2019093S08132 2019 19 SI WA WALLACE 2019-04-09 06:00:00 TS -16.3000 114.400 main 538 528 O_____________ jtwc_sh SH232019 -16.3000 114.400 TS 50 995 0 70 95 90 50 1008 180 30 5 234
2019093S08132 2019 19 SI WA WALLACE 2019-04-09 09:00:00 TS -16.5075 114.138 main 534 524 P_____________ SH232019 -16.5075 114.138 TS 47 996 0 67 92 87 50 1008 182 30 7 235
2019093S08132 2019 19 SI WA WALLACE 2019-04-09 12:00:00 TS -16.7000 113.800 main 532 532 O_____________ jtwc_sh SH232019 -16.7000 113.800 TS 45 998 0 65 90 85 50 1009 185 30 7 253
2019093S08132 2019 19 SI WA WALLACE 2019-04-09 15:00:00 TS -16.7225 113.407 main 554 554 P_____________ SH232019 -16.7225 113.407 TS 42 1000 0 60 85 77 52 1009 190 30 8 270
2019093S08132 2019 19 SI WA WALLACE 2019-04-09 18:00:00 TS -16.7000 113.000 main 578 578 O_____________ jtwc_sh SH232019 -16.7000 113.000 TS 40 1002 0 55 80 70 55 1009 195 30 7 268
2019093S08132 2019 19 SI WA WALLACE 2019-04-09 21:00:00 TS -16.7499 112.650 main 596 589 P_____________ SH232019 -16.7499 112.650 TS 40 1002 0 57 77 70 52 1008 185 30 7 262
2019093S08132 2019 19 SI WA WALLACE 2019-04-10 00:00:00 TS -16.8000 112.300 main 597 597 O_____________ jtwc_sh SH232019 -16.8000 112.300 TS 40 1002 0 60 75 70 50 1008 175 30 7 267
2019093S08132 2019 19 SI WA WALLACE 2019-04-10 03:00:00 TS -16.7849 111.915 main 611 611 P_____________ SH232019 -16.7849 111.915 TS 37 1002 0 60 70 82 55 1008 175 30 8 270
2019093S08132 2019 19 SI WA WALLACE 2019-04-10 06:00:00 TS -16.8000 111.500 main 627 626 O_____________ jtwc_sh SH232019 -16.8000 111.500 TS 35 1003 0 60 65 95 60 1008 175 30 8 260
2019093S08132 2019 19 SI WA WALLACE 2019-04-10 09:00:00 TS -16.9273 111.073 main 636 631 P_____________ SH232019 -16.9273 111.073 TS 35 1003 0 60 1008 175 30 9 251
2019093S08132 2019 19 SI WA WALLACE 2019-04-10 12:00:00 TS -17.1000 110.600 main 644 644 O_____________ jtwc_sh SH232019 -17.1000 110.600 TS 35 1004 0 55 1008 175 30 10 251
2019093S08132 2019 19 SI WA WALLACE 2019-04-10 15:00:00 TS -17.2576 110.050 main 656 656 P_____________ SH232019 -17.2576 110.050 TS 32 1005 -1 1008 175 30 11 254
2019093S08132 2019 19 SI WA WALLACE 2019-04-10 18:00:00 TS -17.4000 109.500 main 689 689 O_____________ jtwc_sh SH232019 -17.4000 109.500 TD 30 1006 -1 1008 175 30 10 255
2019093S08132 2019 19 SI WA WALLACE 2019-04-10 21:00:00 TS -17.5147 109.050 main 718 718 P_____________ SH232019 -17.5147 109.050 TD 30 1006 -1 1008 175 30 9 257
2019093S08132 2019 19 SI WA WALLACE 2019-04-11 00:00:00 TS -17.6000 108.600 main 741 741 O_____________ jtwc_sh SH232019 -17.6000 108.600 TD 30 1006 -1 1008 175 30 9 260
2019093S08132 2019 19 SI WA WALLACE 2019-04-11 03:00:00 TS -17.6724 108.073 main 775 775 P_____________ SH232019 -17.6724 108.073 TD 30 1006 -1 1008 175 30 11 265
2019093S08132 2019 19 SI WA WALLACE 2019-04-11 06:00:00 TS -17.7000 107.500 main 826 826 O_____________ jtwc_sh SH232019 -17.7000 107.500 TD 30 1006 -1 1008 175 30 11 270
2019093S08132 2019 19 SI WA WALLACE 2019-04-11 09:00:00 TS -17.6800 106.893 main 878 878 P_____________ SH232019 -17.6800 106.893 TD 30 1006 -1 1007 175 30 11 275
2019093S08132 2019 19 SI WA WALLACE 2019-04-11 12:00:00 TS -17.6000 106.300 main 938 938 O_____________ jtwc_sh SH232019 -17.6000 106.300 TD 30 1006 -1 1007 175 30 11 282
2019093S08132 2019 19 SI WA WALLACE 2019-04-11 15:00:00 TS -17.4647 105.793 main 989 989 P_____________ SH232019 -17.4647 105.793 TD 27 1006 -1 1007 175 30 10 287
2019093S08132 2019 19 SI WA WALLACE 2019-04-11 18:00:00 TS -17.3000 105.300 main 1046 1046 O_____________ jtwc_sh SH232019 -17.3000 105.300 TD 25 1007 -1 1008 175 30 10 288
2019093S08132 2019 19 SI WA WALLACE 2019-04-11 21:00:00 TS -17.1423 104.765 main 1100 1096 P_____________ SH232019 -17.1423 104.765 TD 25 1007 -1 1008 175 30 11 286
2019093S08132 2019 19 SI WA WALLACE 2019-04-12 00:00:00 TS -17.0000 104.200 main 1101 1097 O_____________ jtwc_sh SH232019 -17.0000 104.200 TD 25 1007 -1 1008 175 30 12 282
2019093S08132 2019 19 SI WA WALLACE 2019-04-12 03:00:00 TS -16.9076 103.585 main 1106 1106 P_____________ SH232019 -16.9076 103.585 TD 22 1007 -1 1008 175 30 12 280
2019093S08132 2019 19 SI WA WALLACE 2019-04-12 06:00:00 NR -16.8000 103.000 main 1115 1109 O_____________ jtwc_sh SH232019 -16.8000 103.000 DB 20 1008 -3 1008 175 30 11 286
2019093S08132 2019 19 SI WA WALLACE 2019-04-12 09:00:00 NR -16.6147 102.528 main 1114 1106 P_____________ SH232019 -16.6147 102.528 DB 20 1008 -3 1008 175 30 10 295
2019093S08132 2019 19 SI WA WALLACE 2019-04-12 12:00:00 NR -16.4000 102.100 main 1111 1105 O_____________ jtwc_sh SH232019 -16.4000 102.100 DB 20 1008 -3 1008 175 30 9 298
2019093S08132 2019 19 SI WA WALLACE 2019-04-12 15:00:00 NR -16.1774 101.657 main 1110 1105 P_____________ SH232019 -16.1774 101.657 DB 20 1008 -3 1008 175 10 295
2019093S08132 2019 19 SI WA WALLACE 2019-04-12 18:00:00 NR -16.0000 101.200 main 1117 1117 O_____________ jtwc_sh SH232019 -16.0000 101.200 DB 20 1008 -3 1008 175 10 284
2019093S08132 2019 19 SI WA WALLACE 2019-04-12 21:00:00 NR -15.9426 100.670 main 1130 1130 P_____________ SH232019 -15.9426 100.670 DB 20 1007 -3 1008 175 10 276
2019093S08132 2019 19 SI WA WALLACE 2019-04-13 00:00:00 NR -15.9000 100.200 main 1155 1155 O_____________ jtwc_sh SH232019 -15.9000 100.200 DB 20 1007 -3 1008 175 8 282
2019093S08132 2019 19 SI WA WALLACE 2019-04-13 03:00:00 NR -15.7798 99.8975 main 1161 1153 P_____________ SH232019 -15.7798 99.8975 DB 20 1008 -3 1008 175 6 302
2019093S08132 2019 19 SI WA WALLACE 2019-04-13 06:00:00 NR -15.6000 99.7000 main 1153 1140 O_____________ jtwc_sh SH232019 -15.6000 99.7000 DB 20 1009 -3 1008 175 5 321
2019093S08132 2019 19 SI WA WALLACE 2019-04-13 09:00:00 NR -15.3649 99.5501 main 1140 1124 P_____________ SH232019 -15.3649 99.5501 DB 20 1009 -3 1008 175 6 330
2019093S08132 2019 19 SI WA WALLACE 2019-04-13 12:00:00 NR -15.1000 99.4000 main 1124 1112 O_____________ jtwc_sh SH232019 -15.1000 99.4000 DB 20 1009 -3 1008 175 6 325
2019093S08132 2019 19 SI WA WALLACE 2019-04-13 15:00:00 NR -14.8451 99.1748 main 1110 1107 P_____________ SH232019 -14.8451 99.1748 DB 17 1010 -3 1008 175 7 316
2019093S08132 2019 19 SI WA WALLACE 2019-04-13 18:00:00 NR -14.6000 98.9000 main 1112 O_____________ jtwc_sh SH232019 -14.6000 98.9000 DB 15 1012 -3 1008 175 7 313

About IBTrACS Database

This database is a web-friendly format of International Best Track Archive for Climate Stewardship (IBTrACS), a global best track data archive curated by NOAA dating back to 1842.

Updated: 2022-01-26